createdAt,value
2018-12-31T00:01:16.196Z,24.67
2018-12-31T00:03:45.445Z,25.23
2018-12-31T00:06:14.682Z,24.53
2018-12-31T00:08:44.030Z,22.13
2018-12-31T00:11:13.275Z,24.20
2018-12-31T00:13:42.567Z,23.70
2018-12-31T00:16:11.795Z,24.83
2018-12-31T00:18:41.099Z,23.53
2018-12-31T00:21:10.353Z,23.70
2018-12-31T00:23:39.569Z,25.57
2018-12-31T00:26:08.833Z,26.90
2018-12-31T00:28:38.137Z,26.30
2018-12-31T00:31:07.464Z,26.53
2018-12-31T00:33:36.819Z,25.20
2018-12-31T00:36:06.095Z,25.77
2018-12-31T00:38:35.319Z,26.00
2018-12-31T00:41:04.661Z,26.70
2018-12-31T00:43:33.907Z,26.53
2018-12-31T00:46:03.164Z,28.40
2018-12-31T00:48:32.419Z,26.87
2018-12-31T00:51:01.665Z,27.10
2018-12-31T00:53:30.920Z,26.10
2018-12-31T00:56:00.169Z,26.93
2018-12-31T00:58:29.408Z,25.93
2018-12-31T01:00:58.670Z,28.50
2018-12-31T01:03:27.919Z,25.47
2018-12-31T01:05:57.167Z,26.00
2018-12-31T01:08:26.432Z,25.40
2018-12-31T01:10:55.742Z,25.40
2018-12-31T01:13:24.988Z,25.60
2018-12-31T01:15:54.310Z,25.97
2018-12-31T01:18:23.541Z,26.17
2018-12-31T01:20:52.800Z,29.47
2018-12-31T01:23:22.112Z,27.47
2018-12-31T01:25:51.345Z,28.77
2018-12-31T01:28:20.611Z,27.23
2018-12-31T01:30:50.239Z,29.30
2018-12-31T01:33:19.534Z,30.00
2018-12-31T01:35:48.776Z,29.47
2018-12-31T01:38:18.033Z,30.87
2018-12-31T01:40:47.308Z,31.37
2018-12-31T01:43:16.567Z,30.70
2018-12-31T01:45:45.830Z,28.13
2018-12-31T01:48:15.107Z,28.40
2018-12-31T01:50:44.355Z,28.70
2018-12-31T01:53:13.635Z,28.17
2018-12-31T01:55:42.892Z,29.03
2018-12-31T01:58:12.133Z,28.57
2018-12-31T02:00:41.388Z,28.90
2018-12-31T02:03:10.650Z,28.73
2018-12-31T02:05:39.907Z,27.47
2018-12-31T02:08:09.147Z,26.67
2018-12-31T02:10:38.409Z,26.57
2018-12-31T02:13:07.651Z,26.17
2018-12-31T02:15:36.881Z,26.90
2018-12-31T02:18:07.688Z,26.40
2018-12-31T02:20:36.920Z,26.00
2018-12-31T02:23:06.239Z,24.20
2018-12-31T02:25:35.635Z,26.53
2018-12-31T02:28:04.895Z,24.53
2018-12-31T02:30:34.142Z,26.43
2018-12-31T02:33:03.394Z,26.83
2018-12-31T02:35:32.660Z,30.17
2018-12-31T02:38:01.905Z,26.70
2018-12-31T02:40:31.167Z,27.93
2018-12-31T02:43:00.438Z,32.27
2018-12-31T02:45:29.692Z,29.57
2018-12-31T02:47:59.005Z,27.67
2018-12-31T02:50:28.270Z,28.83
2018-12-31T02:52:57.491Z,30.60
2018-12-31T02:55:26.751Z,29.57
2018-12-31T02:57:56.066Z,31.83
2018-12-31T03:00:25.387Z,32.07
2018-12-31T03:02:54.638Z,32.97
2018-12-31T03:05:23.872Z,30.50
2018-12-31T03:07:53.160Z,32.50
2018-12-31T03:10:22.406Z,33.67
2018-12-31T03:12:51.663Z,34.87
2018-12-31T03:15:20.903Z,36.80
2018-12-31T03:17:50.143Z,34.43
2018-12-31T03:20:19.399Z,36.37
2018-12-31T03:22:48.640Z,33.00
2018-12-31T03:25:17.908Z,38.23
2018-12-31T03:27:47.145Z,37.80
2018-12-31T03:30:16.372Z,37.10
2018-12-31T03:32:45.638Z,34.17
2018-12-31T03:35:14.939Z,35.63
2018-12-31T03:37:44.225Z,36.87
2018-12-31T03:40:13.543Z,37.70
2018-12-31T03:42:42.838Z,38.20
2018-12-31T03:45:12.140Z,37.03
2018-12-31T03:47:41.404Z,36.40
2018-12-31T03:50:10.724Z,36.67
2018-12-31T03:52:39.992Z,34.20
2018-12-31T03:55:09.214Z,36.80
2018-12-31T03:57:38.455Z,37.43
2018-12-31T04:00:07.759Z,35.67
2018-12-31T04:02:37.031Z,36.93
2018-12-31T04:05:06.349Z,37.03
2018-12-31T04:07:35.693Z,37.20
2018-12-31T04:10:05.318Z,34.77
2018-12-31T04:12:34.579Z,35.27
2018-12-31T04:15:03.975Z,35.57
2018-12-31T04:17:33.247Z,37.83
2018-12-31T04:20:02.569Z,36.67
2018-12-31T04:22:31.807Z,38.50
2018-12-31T04:25:01.042Z,36.03
2018-12-31T04:27:30.420Z,34.17
2018-12-31T04:29:59.681Z,34.03
2018-12-31T04:32:28.899Z,35.87
2018-12-31T04:34:58.153Z,34.37
2018-12-31T04:37:27.472Z,33.07
2018-12-31T04:39:56.713Z,34.23
2018-12-31T04:42:25.962Z,33.77
2018-12-31T04:44:55.197Z,32.00
2018-12-31T04:47:24.575Z,33.80
2018-12-31T04:49:53.835Z,31.10
2018-12-31T04:52:23.071Z,32.93
2018-12-31T04:54:52.292Z,33.40
2018-12-31T04:57:21.548Z,31.20
2018-12-31T04:59:50.770Z,32.43
2018-12-31T05:02:20.048Z,33.43
2018-12-31T05:04:49.271Z,36.80
2018-12-31T05:07:18.510Z,36.17
2018-12-31T05:09:47.838Z,35.63
2018-12-31T05:12:17.151Z,33.10
2018-12-31T05:14:46.379Z,37.40
2018-12-31T05:17:15.641Z,36.77
2018-12-31T05:19:44.899Z,35.00
2018-12-31T05:22:14.191Z,35.13
2018-12-31T05:24:43.447Z,38.27
2018-12-31T05:27:12.695Z,39.07
2018-12-31T05:29:41.959Z,40.93
2018-12-31T05:32:11.189Z,38.47
2018-12-31T05:34:40.451Z,39.53
2018-12-31T05:37:09.686Z,36.97
2018-12-31T05:39:38.930Z,36.47
2018-12-31T05:42:08.158Z,40.60
2018-12-31T05:44:37.419Z,38.10
2018-12-31T05:47:06.701Z,38.27
2018-12-31T05:49:35.924Z,38.90
2018-12-31T05:52:05.174Z,38.97
2018-12-31T05:54:34.411Z,39.70
2018-12-31T05:57:03.664Z,38.47
2018-12-31T05:59:32.896Z,36.50
2018-12-31T06:02:02.136Z,39.80
2018-12-31T06:04:31.403Z,44.83
2018-12-31T06:07:00.655Z,38.30
2018-12-31T06:09:29.916Z,39.20
2018-12-31T06:11:59.143Z,41.77
2018-12-31T06:14:28.402Z,46.27
2018-12-31T06:16:57.707Z,43.07
2018-12-31T06:19:26.967Z,44.47
2018-12-31T06:21:56.195Z,41.60
2018-12-31T06:24:25.451Z,44.47
2018-12-31T06:26:54.703Z,46.47
2018-12-31T06:29:28.431Z,44.03
2018-12-31T06:31:57.766Z,43.70
2018-12-31T06:34:27.015Z,46.37
2018-12-31T06:36:56.446Z,47.10
2018-12-31T06:39:25.676Z,47.87
2018-12-31T06:41:54.979Z,45.67
2018-12-31T06:44:24.246Z,44.70
2018-12-31T06:46:53.479Z,50.47
2018-12-31T06:49:22.738Z,49.10
2018-12-31T06:51:52.015Z,45.50
2018-12-31T06:54:21.254Z,50.87
2018-12-31T06:56:50.523Z,48.80
2018-12-31T06:59:19.753Z,51.97
2018-12-31T07:01:49.020Z,47.40
2018-12-31T07:04:18.307Z,48.80
2018-12-31T07:06:47.532Z,49.90
2018-12-31T07:09:16.791Z,48.40
2018-12-31T07:11:46.054Z,51.87
2018-12-31T07:14:15.314Z,49.40
2018-12-31T07:16:44.579Z,50.87
2018-12-31T07:19:13.833Z,49.60
2018-12-31T07:21:43.096Z,53.07
2018-12-31T07:24:12.368Z,50.57
2018-12-31T07:26:41.653Z,50.93
2018-12-31T07:29:10.953Z,48.30
2018-12-31T07:31:40.271Z,52.03
2018-12-31T07:34:09.508Z,51.30
2018-12-31T07:36:38.767Z,47.17
2018-12-31T07:39:08.132Z,49.53
2018-12-31T07:41:37.391Z,50.20
2018-12-31T07:44:06.671Z,47.87
2018-12-31T07:46:35.975Z,48.83
2018-12-31T07:49:05.221Z,48.60
2018-12-31T07:51:34.463Z,46.83
2018-12-31T07:54:03.789Z,48.67
2018-12-31T07:56:33.036Z,50.20
2018-12-31T07:59:02.374Z,49.43
2018-12-31T08:01:31.691Z,48.37
2018-12-31T08:04:00.948Z,46.87
2018-12-31T08:06:30.298Z,46.90
2018-12-31T08:08:59.557Z,49.30
2018-12-31T08:11:28.830Z,50.27
2018-12-31T08:13:58.064Z,45.43
2018-12-31T08:16:27.414Z,45.50
2018-12-31T08:18:56.659Z,45.10
2018-12-31T08:21:25.921Z,43.60
2018-12-31T08:23:55.180Z,43.87
2018-12-31T08:26:24.430Z,43.93
2018-12-31T08:28:53.686Z,39.17
2018-12-31T08:31:22.931Z,44.00
2018-12-31T08:33:52.212Z,43.13
2018-12-31T08:36:21.817Z,39.97
2018-12-31T08:38:51.178Z,40.90
2018-12-31T08:41:20.427Z,39.37
2018-12-31T08:43:49.681Z,40.10
2018-12-31T08:46:18.955Z,35.60
2018-12-31T08:48:48.215Z,38.47
2018-12-31T08:51:17.463Z,33.53
2018-12-31T08:53:46.802Z,35.87
2018-12-31T08:56:16.071Z,34.73
2018-12-31T08:58:45.324Z,34.70
2018-12-31T09:01:14.610Z,33.40
2018-12-31T09:03:43.847Z,31.00
2018-12-31T09:06:13.141Z,32.10
2018-12-31T09:08:42.362Z,32.47
2018-12-31T09:11:11.614Z,31.30
2018-12-31T09:13:40.874Z,33.30
2018-12-31T09:16:10.210Z,32.63
2018-12-31T09:18:39.511Z,32.40
2018-12-31T09:21:08.783Z,33.17
2018-12-31T09:23:38.084Z,32.93
2018-12-31T09:26:07.314Z,31.50
2018-12-31T09:28:36.560Z,32.37
2018-12-31T09:31:05.824Z,30.07
2018-12-31T09:33:35.111Z,32.20
2018-12-31T09:36:04.485Z,31.77
2018-12-31T09:38:34.142Z,30.10
2018-12-31T09:41:03.465Z,29.03
2018-12-31T09:43:32.732Z,26.43
2018-12-31T09:46:02.134Z,26.70
2018-12-31T09:48:31.361Z,28.83
2018-12-31T09:51:00.603Z,26.13
2018-12-31T09:53:29.863Z,26.53
2018-12-31T09:55:59.207Z,27.90
2018-12-31T09:58:28.506Z,24.90
2018-12-31T10:00:57.837Z,26.43
2018-12-31T10:03:27.133Z,27.17
2018-12-31T10:05:56.391Z,26.27
2018-12-31T10:08:25.627Z,27.67
2018-12-31T10:10:55.042Z,23.57
2018-12-31T10:13:24.390Z,24.43
2018-12-31T10:15:53.630Z,22.37
2018-12-31T10:18:22.882Z,25.70
2018-12-31T10:20:52.153Z,25.67
2018-12-31T10:23:21.423Z,23.40
2018-12-31T10:25:50.741Z,21.40
2018-12-31T10:28:20.101Z,22.23
2018-12-31T10:30:49.383Z,22.47
2018-12-31T10:33:18.660Z,22.43
2018-12-31T10:35:47.886Z,22.07
2018-12-31T10:38:17.212Z,21.50
2018-12-31T10:40:46.487Z,22.53
2018-12-31T10:43:15.803Z,21.67
2018-12-31T10:45:45.062Z,22.07
2018-12-31T10:48:14.421Z,21.00
2018-12-31T10:50:43.757Z,20.70
2018-12-31T10:53:13.006Z,20.90
2018-12-31T10:55:42.270Z,20.97
2018-12-31T10:58:11.537Z,21.70
2018-12-31T11:00:40.799Z,20.07
2018-12-31T11:03:10.075Z,20.77
2018-12-31T11:05:39.432Z,21.90
2018-12-31T11:08:10.484Z,21.17
2018-12-31T11:10:39.716Z,20.33
2018-12-31T11:13:09.059Z,18.20
2018-12-31T11:15:38.335Z,17.43
2018-12-31T11:18:07.839Z,18.13
2018-12-31T11:20:37.116Z,18.83
2018-12-31T11:23:06.385Z,18.33
2018-12-31T11:25:35.640Z,19.60
2018-12-31T11:28:04.955Z,18.50
2018-12-31T11:30:34.214Z,21.30
2018-12-31T11:33:03.478Z,21.37
2018-12-31T11:35:32.714Z,19.83
2018-12-31T11:38:02.005Z,19.90
2018-12-31T11:40:31.287Z,16.93
2018-12-31T11:43:00.547Z,18.47
2018-12-31T11:45:29.807Z,17.50
2018-12-31T11:47:59.072Z,19.40
2018-12-31T11:50:28.385Z,18.97
2018-12-31T11:52:57.650Z,17.73
2018-12-31T11:55:26.960Z,20.27
2018-12-31T11:57:56.240Z,20.30
2018-12-31T12:00:25.489Z,18.50
2018-12-31T12:02:54.743Z,18.17
2018-12-31T12:05:24.007Z,18.23
2018-12-31T12:07:53.238Z,18.60
2018-12-31T12:10:22.503Z,19.97
2018-12-31T12:12:51.736Z,20.53
2018-12-31T12:15:20.994Z,19.60
2018-12-31T12:17:50.241Z,27.40
2018-12-31T12:20:19.502Z,22.97
2018-12-31T12:22:48.777Z,24.87
2018-12-31T12:25:18.025Z,23.23
2018-12-31T12:27:47.351Z,25.23
2018-12-31T12:30:16.615Z,25.63
2018-12-31T12:32:45.871Z,24.20
2018-12-31T12:35:15.144Z,22.60
2018-12-31T12:37:48.474Z,22.60
2018-12-31T12:40:16.971Z,22.00
2018-12-31T12:42:46.226Z,22.77
2018-12-31T12:45:15.634Z,23.30
2018-12-31T12:47:44.879Z,24.13
2018-12-31T12:50:14.156Z,24.53
2018-12-31T12:52:43.431Z,22.10
2018-12-31T12:55:12.988Z,21.47
2018-12-31T12:57:42.336Z,23.43
2018-12-31T13:00:11.588Z,21.60
2018-12-31T13:02:40.847Z,22.20
2018-12-31T13:05:10.114Z,23.63
2018-12-31T13:07:39.740Z,22.30
2018-12-31T13:10:09.133Z,21.33
2018-12-31T13:12:38.497Z,19.83
2018-12-31T13:15:07.889Z,19.50
2018-12-31T13:17:37.293Z,19.20
2018-12-31T13:20:06.684Z,19.67
2018-12-31T13:22:35.960Z,19.27
2018-12-31T13:25:05.272Z,18.30
2018-12-31T13:27:34.607Z,19.63
2018-12-31T13:30:04.668Z,20.23
2018-12-31T13:32:33.934Z,20.80
2018-12-31T13:35:03.208Z,21.70
2018-12-31T13:37:32.548Z,22.80
2018-12-31T13:40:01.827Z,22.73
2018-12-31T13:42:31.086Z,21.07
2018-12-31T13:45:00.391Z,22.17
2018-12-31T13:47:29.650Z,22.30
2018-12-31T13:49:58.936Z,20.63
2018-12-31T13:52:28.234Z,21.23
2018-12-31T13:54:57.464Z,20.40
2018-12-31T13:57:26.726Z,21.03
2018-12-31T13:59:55.984Z,21.60
2018-12-31T14:02:25.242Z,21.90
2018-12-31T14:04:54.566Z,22.30
2018-12-31T14:07:24.975Z,20.83
2018-12-31T14:09:54.257Z,22.07
2018-12-31T14:12:23.519Z,22.37
2018-12-31T14:14:52.894Z,19.00
2018-12-31T14:17:22.196Z,19.47
2018-12-31T14:19:51.612Z,20.00
2018-12-31T14:22:20.969Z,18.80
2018-12-31T14:24:50.233Z,19.43
2018-12-31T14:27:19.506Z,22.67
2018-12-31T14:29:48.923Z,22.43
2018-12-31T14:32:18.359Z,24.60
2018-12-31T14:34:47.633Z,24.00
2018-12-31T14:37:16.912Z,23.77
2018-12-31T14:39:46.237Z,25.53
2018-12-31T14:42:15.625Z,24.37
2018-12-31T14:44:44.899Z,24.67
2018-12-31T14:47:18.369Z,26.00
2018-12-31T14:49:45.207Z,26.00
2018-12-31T14:52:14.446Z,26.47
2018-12-31T14:54:43.727Z,26.50
2018-12-31T14:57:12.983Z,26.13
2018-12-31T14:59:42.227Z,26.50
2018-12-31T15:02:11.572Z,26.37
2018-12-31T15:04:40.814Z,27.03
2018-12-31T15:07:10.131Z,27.77
2018-12-31T15:09:39.440Z,26.97
2018-12-31T15:12:08.720Z,26.97
2018-12-31T15:14:37.969Z,28.73
2018-12-31T15:17:07.303Z,24.63
2018-12-31T15:19:36.855Z,27.33
2018-12-31T15:22:06.139Z,24.97
2018-12-31T15:24:35.454Z,25.63
2018-12-31T15:27:04.755Z,25.57
2018-12-31T15:29:34.047Z,26.10
2018-12-31T15:32:03.725Z,26.07
2018-12-31T15:34:33.009Z,27.67
2018-12-31T15:37:02.279Z,26.57
2018-12-31T15:39:31.557Z,27.60
2018-12-31T15:42:00.958Z,26.43
2018-12-31T15:44:30.397Z,28.27
2018-12-31T15:46:59.640Z,28.63
2018-12-31T15:49:28.916Z,27.60
2018-12-31T15:51:58.171Z,28.77
2018-12-31T15:54:27.533Z,31.93
2018-12-31T15:56:57.044Z,32.77
2018-12-31T15:59:26.351Z,35.33
2018-12-31T16:01:55.644Z,36.10
2018-12-31T16:04:24.894Z,36.57
2018-12-31T16:06:55.528Z,37.17
2018-12-31T16:09:24.776Z,36.93
2018-12-31T16:11:54.027Z,39.17
2018-12-31T16:14:23.266Z,38.10
2018-12-31T16:16:52.521Z,36.57
2018-12-31T16:19:21.854Z,40.93
2018-12-31T16:21:51.112Z,42.67
2018-12-31T16:24:20.446Z,39.93
2018-12-31T16:26:49.824Z,40.03
2018-12-31T16:29:19.081Z,38.87
2018-12-31T16:31:48.431Z,40.63
2018-12-31T16:34:17.765Z,38.40
2018-12-31T16:36:47.043Z,38.10
2018-12-31T16:39:16.382Z,40.37
2018-12-31T16:41:45.736Z,39.13
2018-12-31T16:44:15.071Z,39.20
2018-12-31T16:46:44.422Z,39.40
2018-12-31T16:49:13.743Z,39.07
2018-12-31T16:51:43.018Z,39.00
2018-12-31T16:54:12.310Z,40.57
2018-12-31T16:56:41.557Z,41.40
2018-12-31T16:59:10.846Z,41.47
2018-12-31T17:01:40.107Z,38.80
2018-12-31T17:04:09.519Z,38.80
2018-12-31T17:06:38.787Z,42.07
2018-12-31T17:09:08.197Z,40.77
2018-12-31T17:11:37.491Z,41.07
2018-12-31T17:14:06.796Z,40.97
2018-12-31T17:16:36.059Z,42.30
2018-12-31T17:19:05.298Z,42.60
2018-12-31T17:21:34.589Z,43.60
2018-12-31T17:24:03.917Z,41.57
2018-12-31T17:26:33.163Z,43.93
2018-12-31T17:29:02.458Z,43.43
2018-12-31T17:31:31.762Z,40.60
2018-12-31T17:34:01.055Z,41.33
2018-12-31T17:36:30.359Z,41.80
2018-12-31T17:38:59.710Z,44.37
2018-12-31T17:41:28.960Z,43.43
2018-12-31T17:43:58.241Z,45.20
2018-12-31T17:46:27.575Z,43.10
2018-12-31T17:48:56.853Z,43.80
2018-12-31T17:51:26.107Z,41.60
2018-12-31T17:53:55.340Z,41.27
2018-12-31T17:56:24.619Z,39.60
2018-12-31T17:58:53.859Z,43.50
2018-12-31T18:01:23.103Z,41.30
2018-12-31T18:03:52.372Z,42.87
2018-12-31T18:06:21.719Z,45.50
2018-12-31T18:08:51.090Z,43.37
2018-12-31T18:11:20.351Z,45.40
2018-12-31T18:13:49.686Z,45.03
2018-12-31T18:16:18.954Z,46.77
2018-12-31T18:18:48.309Z,49.37
2018-12-31T18:21:17.619Z,45.13
2018-12-31T18:23:46.899Z,46.97
2018-12-31T18:26:16.164Z,44.77
2018-12-31T18:28:45.447Z,45.07
2018-12-31T18:31:14.683Z,45.43
2018-12-31T18:33:43.912Z,44.63
2018-12-31T18:36:13.210Z,48.57
2018-12-31T18:38:42.554Z,49.00
2018-12-31T18:41:11.832Z,45.37
2018-12-31T18:43:41.086Z,45.90
2018-12-31T18:46:10.353Z,43.70
2018-12-31T18:48:39.717Z,44.00
2018-12-31T18:51:08.999Z,44.80
2018-12-31T18:53:39.689Z,43.30
2018-12-31T18:56:09.087Z,44.20
2018-12-31T18:58:38.350Z,44.50
2018-12-31T19:01:07.622Z,42.07
2018-12-31T19:03:36.947Z,40.60
2018-12-31T19:06:06.213Z,42.10
2018-12-31T19:08:35.458Z,43.47
2018-12-31T19:11:04.796Z,44.80
2018-12-31T19:13:34.050Z,42.17
2018-12-31T19:16:03.341Z,41.67
2018-12-31T19:18:32.666Z,38.37
2018-12-31T19:21:01.920Z,43.73
2018-12-31T19:23:31.241Z,41.80
2018-12-31T19:26:00.611Z,42.97
2018-12-31T19:28:29.862Z,41.20
2018-12-31T19:30:59.139Z,39.53
2018-12-31T19:33:28.387Z,42.50
2018-12-31T19:35:57.619Z,43.40
2018-12-31T19:38:26.890Z,40.73
2018-12-31T19:40:56.131Z,39.50
2018-12-31T19:43:25.466Z,36.13
2018-12-31T19:45:54.759Z,36.93
2018-12-31T19:48:24.076Z,37.10
2018-12-31T19:50:53.327Z,36.70
2018-12-31T19:53:22.593Z,36.67
2018-12-31T19:55:51.848Z,34.33
2018-12-31T19:58:21.124Z,33.83
2018-12-31T20:00:50.360Z,35.23
2018-12-31T20:03:19.603Z,39.67
2018-12-31T20:05:48.880Z,33.13
2018-12-31T20:08:18.258Z,30.17
2018-12-31T20:10:47.521Z,30.10
2018-12-31T20:13:16.770Z,30.10
2018-12-31T20:15:48.732Z,31.90
2018-12-31T20:18:17.383Z,29.53
2018-12-31T20:20:46.643Z,29.90
2018-12-31T20:23:15.886Z,31.13
2018-12-31T20:25:45.343Z,30.60
2018-12-31T20:28:14.638Z,29.93
2018-12-31T20:30:44.082Z,31.87
2018-12-31T20:33:13.314Z,31.07
2018-12-31T20:35:42.595Z,31.80
2018-12-31T20:38:11.907Z,30.27
2018-12-31T20:40:41.243Z,30.97
2018-12-31T20:43:11.052Z,31.70
2018-12-31T20:45:40.313Z,32.80
2018-12-31T20:48:09.624Z,30.50
2018-12-31T20:50:38.893Z,29.90
2018-12-31T20:53:08.154Z,31.53
2018-12-31T20:55:37.403Z,31.23
2018-12-31T20:58:06.663Z,30.10
2018-12-31T21:00:35.997Z,29.37
2018-12-31T21:03:05.331Z,30.57
2018-12-31T21:05:34.577Z,31.53
2018-12-31T21:08:03.856Z,30.37
2018-12-31T21:10:38.377Z,32.67
2018-12-31T21:13:09.563Z,33.37
2018-12-31T21:15:39.031Z,31.67
2018-12-31T21:18:08.319Z,31.03
2018-12-31T21:20:37.599Z,30.90
2018-12-31T21:23:06.912Z,32.43
2018-12-31T21:25:36.303Z,33.80
2018-12-31T21:28:05.536Z,33.40
2018-12-31T21:30:34.803Z,31.60
2018-12-31T21:33:04.115Z,35.67
2018-12-31T21:35:33.391Z,35.87
2018-12-31T21:38:02.729Z,34.20
2018-12-31T21:40:32.032Z,34.87
2018-12-31T21:43:01.298Z,35.60
2018-12-31T21:45:30.615Z,34.57
2018-12-31T21:47:59.877Z,34.93
2018-12-31T21:50:29.113Z,35.33
2018-12-31T21:52:58.391Z,37.50
2018-12-31T21:55:27.623Z,36.37
2018-12-31T21:57:56.894Z,38.60
2018-12-31T22:00:26.315Z,36.50
2018-12-31T22:02:57.204Z,36.87
2018-12-31T22:05:26.705Z,36.23
2018-12-31T22:07:55.939Z,40.30
2018-12-31T22:10:25.296Z,36.07
2018-12-31T22:12:54.727Z,37.93
2018-12-31T22:15:23.972Z,36.40
2018-12-31T22:17:53.270Z,39.03
2018-12-31T22:20:22.533Z,35.87
2018-12-31T22:22:51.872Z,35.10
2018-12-31T22:25:21.298Z,34.30
2018-12-31T22:27:50.562Z,33.37
2018-12-31T22:30:19.891Z,36.30
2018-12-31T22:32:49.120Z,36.73
2018-12-31T22:35:18.384Z,31.43
2018-12-31T22:37:47.924Z,33.40
2018-12-31T22:40:17.185Z,37.17
2018-12-31T22:42:46.500Z,34.23
2018-12-31T22:45:15.735Z,34.73
2018-12-31T22:47:44.964Z,34.67
2018-12-31T22:50:14.498Z,37.50
2018-12-31T22:52:43.739Z,35.37
2018-12-31T22:55:13.013Z,37.27
2018-12-31T22:57:42.324Z,36.13
2018-12-31T23:00:11.822Z,37.60
2018-12-31T23:02:41.382Z,40.30
2018-12-31T23:05:10.894Z,46.67
2018-12-31T23:07:40.151Z,226.67
2018-12-31T23:10:09.663Z,200.07
2018-12-31T23:12:39.027Z,515.63
2018-12-31T23:15:11.469Z,57.30
2018-12-31T23:17:40.728Z,60.90
2018-12-31T23:20:11.696Z,58.20
2018-12-31T23:22:40.956Z,63.60
2018-12-31T23:25:10.263Z,77.80
2018-12-31T23:27:39.561Z,84.50
2018-12-31T23:30:10.078Z,97.17
2018-12-31T23:32:39.363Z,97.87
2018-12-31T23:35:08.899Z,105.07
2018-12-31T23:37:38.887Z,108.80
2018-12-31T23:40:09.418Z,125.27
2018-12-31T23:42:38.724Z,142.57
2018-12-31T23:45:10.108Z,155.10
2018-12-31T23:47:39.396Z,164.70
2018-12-31T23:50:10.081Z,169.03
2018-12-31T23:52:39.421Z,170.97
2018-12-31T23:55:08.827Z,157.60
2018-12-31T23:57:38.102Z,142.30
